Bramble, Montserrat

4:20 PM AST on July 26, 2014 (GMT -0400)
JOHN OSBORNE AP (TRPG) Elev 551 ft | 16.79 °N, 62.19 °W | Change Station

Current weather conditions updated 20 minutes ago

Haze
Haze
81 °F
Feels Like 85 °F
N
15
Wind Variable Wind from East

Tomorrow is forecast to be Cooler than today.

Today
High -- | Low -- °F
--% Chance of Precip.
Yesterday
High -- | Low -- °F
Precip. -- in
5:47 AM 6:43 PM
Waning Crescent, 0% visible
Pressure 30.01 in
Visibility 6.2 miles
Clouds Mostly Cloudy 1800 ft
Mostly Cloudy 24000 ft
Heat Index 85 °F
Dew Point 73 °F
Humidity 79%
Rainfall 0.00 in
Snow Depth Not available.
UV 3 out of 12
Pollen Not available.
Air Quality Not available.
Flu Activity Not available.
METAR TRPG 262000Z 10013KT 9999 HZ BKN018 BKN240 27/23 Q1016 RMK RERA

More Conditions Fewer Conditions

Pressure 30.01 in
Visibility 6.2 miles
Clouds Mostly Cloudy 1800 ft
Mostly Cloudy 24000 ft
Heat Index 85 °F
Dew Point 73 °F
Humidity 79%
Rainfall 0.00 in
Snow Depth Not available.
UV 3 out of 12
Pollen Not available.
Air Quality Not available.
Flu Activity Not available.
METAR TRPG 262000Z 10013KT 9999 HZ BKN018 BKN240 27/23 Q1016 RMK RERA

More Conditions Fewer Conditions

10-Day Weather Forecast

Almanac

Astronomy

Jul. 26, 2014 Rise Set
Actual Time 5:47 AM AST 6:43 PM AST
Civil Twilight 5:23 AM AST 7:06 PM AST
Nautical Twilight 4:56 AM AST 7:33 PM AST
Astronomical Twilight 4:28 AM AST 8:01 PM AST
Moon 5:26 AM AST 6:27 PM AST
Length of Visible Light 13h 42m
Length of Day
12h 55m
Tomorrow will be 0m 38s shorter.
Waning Crescent, 0% of the Moon is Illuminated
Today
Waning Crescent
Jul 26
New
Aug 3
First Quarter
Aug 10
Full
Aug 17
Last Quarter

Today's Extremes

Country Highs Country Lows

Community

WunderPhotos

Upload Photos

1,737,696 photos uploaded!

Nearby

Snow Depth

Not available.

Earthquake Activity

City Distance Mag. Time & Date
No recent earthquake activity has been reported nearby.
Minimum magnitude displayed is 2.5.

Coastal Water Temperatures

Place Temperature
No Stations Reporting

Nearby Weather Stations

There are no personal weather stations in this area.